Redwood City, CA (94064)

02:42 AM PDT del 27 Maggio 2015 (GMT -0700)
Sterling Heights | | Change Station
CLOSE
Current Station
Stazione meteo personale
Location: Redwood City, CA
Altitudine: 134 ft
Stazioni meteo nelle vicinanze

Alt. 134 ft 37.46 °N, 122.25 °W | Updated 18 seconds ago

Coperto
Coperto
53.6 °F
Sembra 53.6 °F
N
0.0
Vento Variabile Vento da NO
Gusts 0.0 mph

Oggi
Massima -- | Minima -- °F
--% Possibilità di precip.
Ieri
Massima -- | Minima -- °F
Precip. -- in
5:51 AM 8:20 PM
Gobba a ponente, 66% visible
Pressione 30.02 in
Visibilità 10.0 miglia
Nuvole Coperto 2100 ft
Punto di rugiada 49 °F
Umidità 83%
Piovosità 0.00 in
Spessore del manto nevoso Non disponibile.
Raggi UV 0 fuori da 12
Polline 6.00 fuori da 12
Qualità dell'aria Non disponibile.
Flu Activity Sporadic
METAR KSQL 270935Z AUTO 25004KT 10SM OVC021 13/09 A3002 RMK AO2

More Conditions Fewer Conditions

Pressione 30.02 in
Visibilità 10.0 miglia
Nuvole Coperto 2100 ft
Punto di rugiada 49 °F
Umidità 83%
Piovosità 0.00 in
Spessore del manto nevoso Non disponibile.
Raggi UV 0 fuori da 12
Polline 6.00 fuori da 12
Qualità dell'aria Non disponibile.
Flu Activity Sporadic
METAR KSQL 270935Z AUTO 25004KT 10SM OVC021 13/09 A3002 RMK AO2

More Conditions Fewer Conditions

10-Day Weather Forecast

Almanac

Astronomia

May. 27, 2015 Alba Tramonto
Ora attuale
Crepuscolo civile
Crepuscolo nautico
Crepuscolo astronomico
Luna
Estensione della luce visibile
Lunghezza del giorno
Tomorrow will be .
, % of the Moon is Illuminated

Gli estremi di oggi

State Highs State Lows

Community

WunderPhotos

Upload Photos

1,824,635 foto caricate!

WunderBlogs® & News

Nearby

Qualità dell'aria

  Qualità dell'aria Indice AQ Inquinante
Not available.

Profondità neve

Stazione Profondità Altitudine

Attività sismica

Città  Distanza Mag. Data & Ora
Minimo Magnitudo Mostrato è 2.5.

Temperature delle acque costiere

Località Temperatura

Stations

Stazioni meteo nelle vicinanze

Ubicazione della stazione Temp. Raffreddamento del vento Punto di rugiada Umidità Vento Precip. Alt. Aggiornato Tipo